Heber Springs, AR (72543)

11:54 PM CST on December 08, 2016 (GMT -0600)
Heber Springs WX | | Change Station

Elev 541 ft 35.52 °N, 92.03 °W | Updated 8 seconds ago

Clear
Clear
26.1 °F
Feels Like 26 °F
N
2.0
Wind Variable Wind from West

Today
High -- | Low -- °F
--% Chance of Precip.
Yesterday
High -- | Low -- °F
Precip. -- in
Pressure 30.64 in
Visibility 10.0 miles
Clouds Clear
Windchill 26 °F
Dew Point 17 °F
Humidity 69%
Rainfall 0.00 in
Snow Depth Not available.
7:05 AM 4:55 PM
Waxing Gibbous, 70% visible
METAR KCCA 090535Z AUTO VRB04KT 10SM CLR M03/M10 A3064 RMK AO2
Pressure 30.64 in
Visibility 10.0 miles
Clouds Clear
Windchill 26 °F
Dew Point 17 °F
Humidity 69%
Rainfall 0.00 in
Snow Depth Not available.
7:05 AM 4:55 PM
Waxing Gibbous, 70% visible
METAR KCCA 090535Z AUTO VRB04KT 10SM CLR M03/M10 A3064 RMK AO2

10-Day Weather Forecast

Almanac

Astronomy

Dec. 08, 2016 Rise Set
Actual Time
Civil Twilight
Nautical Twilight
Astronomical Twilight
Moon
Length of Visible Light
Length of Day
Tomorrow will be .
, % of the Moon is Illuminated

Today's Extremes

State Highs State Lows

Community

WunderPhotos

Upload Photos

1,956,374 photos uploaded!

WunderBlog® & News

Nearby

Air Quality

  Air Quality AQ Index Pollutant
Not available.

Snow Depth

Station Depth Elevation

Earthquake Activity

City Distance Mag. Time & Date
Minimum magnitude displayed is 2.5.

Coastal Water Temperatures

Place Temperature

Stations

Nearby Weather Stations

Station Location Temp. Windchill Dew Point Humidity Wind Precip. Elev Updated Type
                   

Watches & Warnings

There are currently no watches in effect.